Main page
METAR-TAF:

METAR-TAF

Airports :

Mariehamn Airport

Mariehamn, Finland

latitude: 60-07N, longitude: 019-54E, elevation: 6 m

Current weather observation

The report was made 32 minutes ago, at 22:50 UTC
Wind 4 kt from the West/Northwest, varying between West and North/Northwest
Temperature -2°C
Humidity 80%
Pressure 1004 hPa
Visibility 10 km or more
Overcast at a height of 3500 ft

METAR: EFMA 272250Z AUTO 30004KT 270V330 9999 OVC035 M02/M05 Q1004

Time: 01:22 (23:22 UTC)

Forecast

The report was made 2 hours and 56 minutes ago, at 20:26 UTC
Forecast valid from 27 at 21 UTC to 28 at 06 UTC
Wind 5 kt from the West
Visibility 10 km or more
Overcast at a height of 1900 ft
Temporary
from 27 at 21 UTC to 28 at 06 UTC
Broken clouds at a height of 1200 ft

TAF: EFMA 272026Z 2721/2806 28005KT 9999 OVC019 TEMPO 2721/2806 BKN012

Weather observations and forecasts of more than 4000 airports (METAR and TAF reports).

The available stations are represented by yellow and red dots on the map.

Hover mouse over dot to see the name of the station.

Then click to see weather observations and forecasts.

To change the map : click on the green buttons with a black cross to zoom in, on the green button with a dash to zoom out, or on the green arrows for adjacent maps.


METAR-TAF: